createdAt,value
2019-01-08T01:01:11.546Z,1.29
2019-01-08T01:02:11.531Z,1.10
2019-01-08T01:03:11.524Z,1.00
2019-01-08T01:04:11.516Z,1.20
2019-01-08T01:05:11.502Z,1.20
2019-01-08T01:06:11.503Z,1.60
2019-01-08T01:07:11.552Z,2.59
2019-01-08T01:08:11.480Z,2.40
2019-01-08T01:09:11.481Z,3.20
2019-01-08T01:10:11.450Z,4.00
2019-01-08T01:11:11.435Z,4.19
2019-01-08T01:12:11.433Z,4.30
2019-01-08T01:13:11.488Z,4.69
2019-01-08T01:14:11.399Z,5.09
2019-01-08T01:15:11.397Z,5.40
2019-01-08T01:16:11.383Z,5.00
2019-01-08T01:17:11.365Z,5.00
2019-01-08T01:18:11.365Z,6.69
2019-01-08T01:19:11.351Z,5.09
2019-01-08T01:20:11.334Z,6.69
2019-01-08T01:21:11.332Z,6.19
2019-01-08T01:22:11.312Z,5.69
2019-01-08T01:23:11.316Z,6.59
2019-01-08T01:24:11.291Z,8.00
2019-01-08T01:25:11.281Z,5.80
2019-01-08T01:26:11.310Z,5.40
2019-01-08T01:27:11.267Z,5.90
2019-01-08T01:28:11.254Z,5.50
2019-01-08T01:29:11.236Z,7.09
2019-01-08T01:30:11.231Z,6.50
2019-01-08T01:31:11.223Z,5.80
2019-01-08T01:32:11.205Z,8.69
2019-01-08T01:33:11.188Z,7.59
2019-01-08T01:34:11.180Z,11.60
2019-01-08T01:35:11.180Z,10.69
2019-01-08T01:36:11.159Z,9.60
2019-01-08T01:37:11.149Z,9.50
2019-01-08T01:38:11.133Z,8.80
2019-01-08T01:39:11.130Z,8.69
2019-01-08T01:40:11.112Z,9.50
2019-01-08T01:41:11.140Z,9.39
2019-01-08T01:42:11.113Z,10.80
2019-01-08T01:43:11.126Z,7.40
2019-01-08T01:44:11.098Z,8.00
2019-01-08T01:45:11.082Z,7.69
2019-01-08T01:46:11.078Z,9.10
2019-01-08T01:47:11.082Z,11.30
2019-01-08T01:48:11.074Z,10.60
2019-01-08T01:49:11.045Z,12.80
2019-01-08T01:50:11.043Z,13.80
2019-01-08T01:51:10.992Z,14.19
2019-01-08T01:52:11.020Z,11.80
2019-01-08T01:53:11.003Z,12.89
2019-01-08T01:54:10.977Z,10.39
2019-01-08T01:55:10.987Z,12.00
2019-01-08T01:56:10.964Z,13.60
2019-01-08T01:57:10.951Z,11.69
2019-01-08T01:58:10.938Z,9.80
2019-01-08T01:59:10.996Z,15.80
2019-01-08T02:00:10.922Z,16.79
2019-01-08T02:01:10.913Z,18.89
2019-01-08T02:02:10.888Z,19.20
2019-01-08T02:03:10.890Z,11.39
2019-01-08T02:04:10.866Z,13.00
2019-01-08T02:05:10.998Z,11.00
2019-01-08T02:06:10.848Z,16.39
2019-01-08T02:07:10.860Z,17.10
2019-01-08T02:08:10.835Z,16.10
2019-01-08T02:09:10.832Z,14.19
2019-01-08T02:10:10.821Z,17.79
2019-01-08T02:11:10.801Z,15.10
2019-01-08T02:12:10.920Z,14.10
2019-01-08T02:13:10.779Z,16.89
2019-01-08T02:14:10.745Z,16.89
2019-01-08T02:15:10.765Z,17.39
2019-01-08T02:16:10.738Z,16.39
2019-01-08T02:17:10.721Z,15.00
2019-01-08T02:18:10.709Z,13.69
2019-01-08T02:19:10.692Z,15.69
2019-01-08T02:20:10.720Z,16.89
2019-01-08T02:21:10.685Z,18.89
2019-01-08T02:22:10.657Z,16.50
2019-01-08T02:23:10.666Z,19.10
2019-01-08T02:24:10.638Z,18.89
2019-01-08T02:25:10.650Z,26.79
2019-01-08T02:26:10.635Z,22.79
2019-01-08T02:27:10.702Z,24.00
2019-01-08T02:28:10.603Z,22.79
2019-01-08T02:29:16.469Z,23.79
2019-01-08T02:30:35.685Z,23.60
2019-01-08T02:31:35.643Z,16.79
2019-01-08T02:32:35.672Z,25.10
2019-01-08T02:33:35.655Z,23.10
2019-01-08T02:34:35.629Z,24.29
2019-01-08T02:35:35.676Z,21.79
2019-01-08T02:36:35.629Z,20.29
2019-01-08T02:37:35.599Z,23.00
2019-01-08T02:38:35.581Z,19.00
2019-01-08T02:39:35.579Z,21.10
2019-01-08T02:40:35.568Z,16.39
2019-01-08T02:41:35.893Z,20.29
2019-01-08T02:42:35.524Z,18.60
2019-01-08T02:43:35.558Z,20.89
2019-01-08T02:44:35.614Z,22.29
2019-01-08T02:45:35.500Z,20.10
2019-01-08T02:46:35.709Z,19.39
2019-01-08T02:47:35.478Z,21.39
2019-01-08T02:48:35.459Z,18.00
2019-01-08T02:49:35.446Z,23.79
2019-01-08T02:50:35.455Z,24.89
2019-01-08T02:51:35.487Z,21.50
2019-01-08T02:52:35.414Z,19.10
2019-01-08T02:53:35.404Z,25.10
2019-01-08T02:54:35.432Z,20.00
2019-01-08T02:55:35.419Z,18.39
2019-01-08T02:56:35.367Z,24.39
2019-01-08T02:57:35.361Z,20.50
2019-01-08T02:58:35.356Z,22.60
2019-01-08T02:59:35.439Z,26.60
2019-01-08T03:00:35.382Z,21.60
2019-01-08T03:01:35.323Z,24.39
2019-01-08T03:02:35.325Z,18.70
2019-01-08T03:03:35.299Z,22.60
2019-01-08T03:04:35.313Z,26.00
2019-01-08T03:05:35.305Z,24.10
2019-01-08T03:06:35.294Z,19.70
2019-01-08T03:07:35.257Z,26.00
2019-01-08T03:08:35.256Z,22.79
2019-01-08T03:09:35.322Z,21.60
2019-01-08T03:10:35.226Z,23.29
2019-01-08T03:11:35.234Z,18.39
2019-01-08T03:12:35.223Z,28.79
2019-01-08T03:13:35.236Z,28.10
2019-01-08T03:14:35.187Z,23.39
2019-01-08T03:15:35.316Z,27.20
2019-01-08T03:16:35.174Z,20.39
2019-01-08T03:17:35.208Z,22.89
2019-01-08T03:18:35.137Z,26.20
2019-01-08T03:19:35.150Z,17.29
2019-01-08T03:20:35.104Z,23.50
2019-01-08T03:21:35.121Z,20.20
2019-01-08T03:22:35.154Z,22.00
2019-01-08T03:23:35.083Z,23.20
2019-01-08T03:24:35.076Z,24.79
2019-01-08T03:25:35.126Z,27.29
2019-01-08T03:26:35.048Z,18.10
2019-01-08T03:27:35.062Z,19.79
2019-01-08T03:28:35.032Z,18.50
2019-01-08T03:29:35.016Z,20.39
2019-01-08T03:30:35.041Z,19.00
2019-01-08T03:31:35.065Z,18.70
2019-01-08T03:32:34.983Z,23.50
2019-01-08T03:33:34.982Z,24.29
2019-01-08T03:34:34.952Z,20.79
2019-01-08T03:35:34.964Z,17.20
2019-01-08T03:36:35.034Z,27.29
2019-01-08T03:37:34.964Z,20.39
2019-01-08T03:38:34.993Z,21.29
2019-01-08T03:39:34.898Z,18.60
2019-01-08T03:40:34.934Z,17.39
2019-01-08T03:41:34.888Z,20.20
2019-01-08T03:42:34.873Z,17.39
2019-01-08T03:43:34.858Z,18.00
2019-01-08T03:44:34.904Z,19.39
2019-01-08T03:45:34.867Z,17.79
2019-01-08T03:46:34.848Z,21.39
2019-01-08T03:47:34.832Z,14.39
2019-01-08T03:48:34.887Z,20.50
2019-01-08T03:49:34.794Z,23.10
2019-01-08T03:50:34.781Z,19.29
2019-01-08T03:51:34.779Z,17.60
2019-01-08T03:52:34.759Z,20.70
2019-01-08T03:53:34.755Z,17.29
2019-01-08T03:54:34.751Z,18.00
2019-01-08T03:55:34.724Z,19.39
2019-01-08T03:56:34.722Z,18.29
2019-01-08T03:57:34.704Z,17.20
2019-01-08T03:58:34.709Z,24.39
2019-01-08T03:59:41.913Z,15.19
2019-01-08T04:00:59.691Z,24.70
2019-01-08T04:01:59.652Z,18.89
2019-01-08T04:02:59.639Z,19.70
2019-01-08T04:03:59.627Z,23.50
2019-01-08T04:04:59.613Z,17.50
2019-01-08T04:05:59.612Z,16.10
2019-01-08T04:06:59.597Z,19.29
2019-01-08T04:07:59.596Z,18.79
2019-01-08T04:08:59.569Z,16.50
2019-01-08T04:09:59.579Z,18.60
2019-01-08T04:10:59.546Z,14.69
2019-01-08T04:11:59.542Z,16.79
2019-01-08T04:12:59.552Z,13.80
2019-01-08T04:13:59.567Z,18.70
2019-01-08T04:14:59.512Z,21.10
2019-01-08T04:16:00.362Z,21.79
2019-01-08T04:16:59.485Z,20.00
2019-01-08T04:17:59.488Z,17.89
2019-01-08T04:18:59.506Z,22.29
2019-01-08T04:19:59.446Z,19.50
2019-01-08T04:20:59.451Z,15.69
2019-01-08T04:21:59.435Z,18.20
2019-01-08T04:22:59.423Z,18.70
2019-01-08T04:23:59.537Z,18.50
2019-01-08T04:24:59.393Z,16.39
2019-01-08T04:25:59.388Z,18.79
2019-01-08T04:26:59.383Z,15.50
2019-01-08T04:27:59.367Z,20.29
2019-01-08T04:28:59.362Z,18.60
2019-01-08T04:29:59.338Z,16.20
2019-01-08T04:30:59.355Z,24.60
2019-01-08T04:31:59.423Z,25.10
2019-01-08T04:32:59.331Z,18.00
2019-01-08T04:33:59.298Z,17.39
2019-01-08T04:35:00.298Z,16.10
2019-01-08T04:35:59.292Z,12.89
2019-01-08T04:36:59.271Z,17.10
2019-01-08T04:37:59.334Z,21.70
2019-01-08T04:38:59.242Z,22.60
2019-01-08T04:39:59.234Z,14.19
2019-01-08T04:40:59.254Z,17.20
2019-01-08T04:41:59.245Z,15.50
2019-01-08T04:42:59.205Z,20.00
2019-01-08T04:43:59.189Z,19.39
2019-01-08T04:44:59.177Z,18.39
2019-01-08T04:45:59.189Z,21.50
2019-01-08T04:46:59.204Z,26.79
2019-01-08T04:47:59.148Z,19.00
2019-01-08T04:48:59.158Z,18.89
2019-01-08T04:49:59.131Z,19.29
2019-01-08T04:50:59.111Z,17.29
2019-01-08T04:51:59.143Z,22.00
2019-01-08T04:52:59.105Z,24.60
2019-01-08T04:53:59.080Z,24.39
2019-01-08T04:54:59.077Z,19.79
2019-01-08T04:55:59.081Z,19.79
2019-01-08T04:56:59.051Z,22.00
2019-01-08T04:57:59.035Z,20.89
2019-01-08T04:58:59.034Z,22.10
2019-01-08T04:59:59.343Z,16.10
2019-01-08T05:00:59.000Z,17.20
2019-01-08T05:01:59.005Z,17.60
2019-01-08T05:02:58.981Z,25.00
2019-01-08T05:03:58.974Z,20.79
2019-01-08T05:04:59.036Z,25.79
2019-01-08T05:05:58.962Z,20.50
2019-01-08T05:06:58.962Z,19.00
2019-01-08T05:07:58.932Z,14.89
2019-01-08T05:08:58.986Z,18.50
2019-01-08T05:09:58.916Z,20.89
2019-01-08T05:10:58.892Z,16.29
2019-01-08T05:11:58.968Z,23.00
2019-01-08T05:12:58.946Z,19.89
2019-01-08T05:13:58.860Z,18.70
2019-01-08T05:14:58.866Z,21.10
2019-01-08T05:15:58.856Z,17.60
2019-01-08T05:16:58.841Z,18.29
2019-01-08T05:17:58.821Z,22.20
2019-01-08T05:18:58.809Z,18.10
2019-01-08T05:19:58.797Z,20.10
2019-01-08T05:20:58.803Z,20.20
2019-01-08T05:21:58.787Z,15.50
2019-01-08T05:22:58.789Z,20.60
2019-01-08T05:23:58.783Z,18.79
2019-01-08T05:24:58.768Z,21.00
2019-01-08T05:25:58.732Z,17.00
2019-01-08T05:26:58.728Z,20.70
2019-01-08T05:27:58.739Z,23.20
2019-01-08T05:28:58.713Z,15.60
2019-01-08T05:30:07.517Z,16.39
2019-01-08T05:31:23.677Z,23.89
2019-01-08T05:32:23.656Z,19.39
2019-01-08T05:33:23.650Z,15.60
2019-01-08T05:34:23.627Z,16.60
2019-01-08T05:35:23.696Z,17.00
2019-01-08T05:36:23.626Z,17.89
2019-01-08T05:37:23.602Z,15.39
2019-01-08T05:38:23.587Z,20.89
2019-01-08T05:39:23.587Z,19.60
2019-01-08T05:40:23.566Z,15.50
2019-01-08T05:41:23.571Z,17.29
2019-01-08T05:42:23.568Z,22.39
2019-01-08T05:43:23.542Z,19.50
2019-01-08T05:44:23.522Z,16.29
2019-01-08T05:45:23.508Z,19.60
2019-01-08T05:46:23.501Z,21.20
2019-01-08T05:47:23.491Z,18.60
2019-01-08T05:48:23.481Z,18.00
2019-01-08T05:49:23.477Z,19.29
2019-01-08T05:50:23.474Z,22.70
2019-01-08T05:51:23.459Z,22.39
2019-01-08T05:52:23.440Z,15.30
2019-01-08T05:53:23.425Z,19.70
2019-01-08T05:54:23.405Z,19.39
2019-01-08T05:55:23.399Z,18.39
2019-01-08T05:56:23.395Z,17.10
2019-01-08T05:57:23.382Z,18.50
2019-01-08T05:58:23.408Z,19.60
2019-01-08T05:59:23.357Z,18.29
2019-01-08T06:00:23.345Z,19.50
2019-01-08T06:01:23.335Z,18.20
2019-01-08T06:02:23.348Z,20.60
2019-01-08T06:03:23.318Z,18.10
2019-01-08T06:04:23.312Z,19.39
2019-01-08T06:05:23.301Z,18.10
2019-01-08T06:06:23.277Z,19.60
2019-01-08T06:07:23.277Z,17.70
2019-01-08T06:08:23.296Z,21.50
2019-01-08T06:09:23.268Z,17.39
2019-01-08T06:10:23.240Z,18.60
2019-01-08T06:11:23.309Z,13.80
2019-01-08T06:12:23.223Z,17.10
2019-01-08T06:13:23.202Z,14.80
2019-01-08T06:14:23.188Z,19.79
2019-01-08T06:15:26.075Z,17.50
2019-01-08T06:16:23.177Z,19.39
2019-01-08T06:17:23.246Z,21.10
2019-01-08T06:18:23.180Z,18.20
2019-01-08T06:19:23.131Z,19.00
2019-01-08T06:20:23.156Z,17.10
2019-01-08T06:21:23.542Z,18.39
2019-01-08T06:22:23.122Z,16.20
2019-01-08T06:23:23.232Z,17.70
2019-01-08T06:24:23.081Z,21.50
2019-01-08T06:25:23.092Z,19.29
2019-01-08T06:26:23.083Z,15.30
2019-01-08T06:27:23.062Z,15.69
2019-01-08T06:28:23.048Z,20.89
2019-01-08T06:29:23.061Z,19.10
2019-01-08T06:30:24.910Z,18.79
2019-01-08T06:31:23.057Z,17.39
2019-01-08T06:32:23.037Z,17.60
2019-01-08T06:33:23.026Z,15.80
2019-01-08T06:34:23.026Z,18.50
2019-01-08T06:35:23.006Z,21.20
2019-01-08T06:36:22.988Z,21.29
2019-01-08T06:37:22.978Z,17.20
2019-01-08T06:38:22.971Z,21.89
2019-01-08T06:39:22.975Z,22.20
2019-01-08T06:40:22.907Z,20.50
2019-01-08T06:41:22.937Z,16.79
2019-01-08T06:42:22.940Z,16.50
2019-01-08T06:43:22.879Z,15.69
2019-01-08T06:44:22.887Z,13.89
2019-01-08T06:45:29.488Z,16.70
2019-01-08T06:46:47.964Z,18.00
2019-01-08T06:47:47.958Z,15.10
2019-01-08T06:48:48.450Z,22.39
2019-01-08T06:49:47.941Z,15.60
2019-01-08T06:50:55.828Z,13.89
2019-01-08T06:52:12.703Z,16.50
2019-01-08T06:53:12.711Z,18.00
2019-01-08T06:54:12.689Z,18.50
2019-01-08T06:55:12.674Z,14.19
2019-01-08T06:56:14.624Z,15.30
2019-01-08T06:57:12.650Z,15.19
2019-01-08T06:58:12.652Z,15.10
2019-01-08T06:59:12.651Z,22.60
2019-01-08T07:00:13.326Z,15.50
2019-01-08T07:01:12.612Z,15.60
2019-01-08T07:02:12.599Z,11.69
2019-01-08T07:03:12.588Z,16.50
2019-01-08T07:04:14.249Z,16.89
2019-01-08T07:05:12.610Z,15.80
2019-01-08T07:06:12.607Z,17.20
2019-01-08T07:07:12.659Z,19.00
2019-01-08T07:08:12.574Z,16.70
2019-01-08T07:09:12.633Z,15.69
2019-01-08T07:10:12.563Z,18.60
2019-01-08T07:11:12.501Z,23.10
2019-01-08T07:12:12.496Z,18.29
2019-01-08T07:13:12.499Z,11.89
2019-01-08T07:14:12.464Z,17.29
2019-01-08T07:15:24.343Z,13.19
2019-01-08T07:16:37.787Z,21.29
2019-01-08T07:17:37.789Z,17.39
2019-01-08T07:18:37.771Z,20.29
2019-01-08T07:19:37.744Z,14.69
2019-01-08T07:20:37.803Z,14.30
2019-01-08T07:21:37.732Z,17.39
2019-01-08T07:22:37.741Z,15.10
2019-01-08T07:23:37.700Z,12.19
2019-01-08T07:24:38.703Z,15.30
2019-01-08T07:25:42.126Z,19.70
2019-01-08T07:26:37.671Z,15.69
2019-01-08T07:27:37.693Z,15.69
2019-01-08T07:28:40.670Z,14.10
2019-01-08T07:29:37.650Z,18.00
2019-01-08T07:30:41.687Z,16.10
2019-01-08T07:31:38.122Z,14.80
2019-01-08T07:32:37.602Z,14.69
2019-01-08T07:33:37.608Z,13.89
2019-01-08T07:34:38.594Z,15.10
2019-01-08T07:35:37.629Z,22.79
2019-01-08T07:36:37.578Z,16.70
2019-01-08T07:37:37.570Z,15.80
2019-01-08T07:38:37.727Z,14.69
2019-01-08T07:39:37.531Z,18.29
2019-01-08T07:40:41.460Z,17.29
2019-01-08T07:41:37.519Z,15.80
2019-01-08T07:42:37.527Z,14.60
2019-01-08T07:43:37.565Z,20.89
2019-01-08T07:44:37.469Z,20.39
2019-01-08T07:45:37.460Z,16.79
2019-01-08T07:46:37.501Z,19.10
2019-01-08T07:47:37.459Z,16.50
2019-01-08T07:48:37.493Z,15.30
2019-01-08T07:49:37.423Z,20.50
2019-01-08T07:50:37.412Z,15.89
2019-01-08T07:51:37.397Z,17.50
2019-01-08T07:52:37.397Z,19.29
2019-01-08T07:53:37.374Z,17.39
2019-01-08T07:54:37.365Z,20.50
2019-01-08T07:55:37.349Z,18.10
2019-01-08T07:56:37.346Z,15.60
2019-01-08T07:57:37.348Z,17.50
2019-01-08T07:58:37.423Z,16.60
2019-01-08T07:59:38.309Z,12.30
2019-01-08T08:00:37.353Z,14.69
2019-01-08T08:01:37.312Z,14.19
2019-01-08T08:02:37.300Z,14.69
2019-01-08T08:03:37.276Z,12.00
2019-01-08T08:04:37.263Z,16.60
2019-01-08T08:05:37.365Z,14.69
2019-01-08T08:06:37.241Z,18.00
2019-01-08T08:07:37.247Z,15.00
2019-01-08T08:08:37.235Z,12.39
2019-01-08T08:09:37.205Z,20.79
2019-01-08T08:10:37.198Z,14.69
2019-01-08T08:11:37.185Z,18.10
2019-01-08T08:12:37.187Z,17.00
2019-01-08T08:13:37.184Z,19.20
2019-01-08T08:14:37.164Z,16.79
2019-01-08T08:15:37.132Z,15.19
2019-01-08T08:16:37.174Z,16.70
2019-01-08T08:17:37.113Z,12.69
2019-01-08T08:18:37.119Z,11.39
2019-01-08T08:19:37.101Z,13.69
2019-01-08T08:20:37.146Z,14.39
2019-01-08T08:21:37.125Z,17.20
2019-01-08T08:22:37.092Z,16.89
2019-01-08T08:23:37.051Z,15.19
2019-01-08T08:24:37.038Z,18.60
2019-01-08T08:25:37.044Z,18.89
2019-01-08T08:26:37.070Z,17.29
2019-01-08T08:27:37.010Z,19.79
2019-01-08T08:28:37.013Z,16.29
2019-01-08T08:29:36.985Z,13.50
2019-01-08T08:30:36.985Z,16.39
2019-01-08T08:31:36.974Z,15.69
2019-01-08T08:32:37.003Z,15.30
2019-01-08T08:33:36.942Z,12.10
2019-01-08T08:34:36.941Z,15.19
2019-01-08T08:35:36.921Z,10.69
2019-01-08T08:36:36.906Z,10.00
2019-01-08T08:37:36.901Z,13.30
2019-01-08T08:38:36.902Z,12.50
2019-01-08T08:39:36.884Z,14.10
2019-01-08T08:40:36.869Z,17.60
2019-01-08T08:41:36.843Z,17.70
2019-01-08T08:42:36.842Z,17.50
2019-01-08T08:43:37.008Z,20.20
2019-01-08T08:44:36.838Z,23.60
2019-01-08T08:45:36.820Z,22.10
2019-01-08T08:46:36.790Z,22.00
2019-01-08T08:47:36.817Z,20.00
2019-01-08T08:48:36.786Z,16.20
2019-01-08T08:49:36.766Z,27.00
2019-01-08T08:50:36.787Z,15.89
2019-01-08T08:51:37.756Z,19.39
2019-01-08T08:52:36.747Z,21.60
2019-01-08T08:53:36.714Z,17.20
2019-01-08T08:54:36.844Z,18.60
2019-01-08T08:55:36.693Z,20.50
2019-01-08T08:56:36.754Z,19.79
2019-01-08T08:57:36.723Z,24.39
2019-01-08T08:58:36.692Z,19.79
2019-01-08T08:59:36.658Z,20.39
2019-01-08T09:00:36.664Z,21.70
2019-01-08T09:01:36.628Z,19.79
2019-01-08T09:02:36.664Z,20.10
2019-01-08T09:03:36.607Z,19.29
2019-01-08T09:04:36.622Z,19.29
2019-01-08T09:05:36.589Z,14.50
2019-01-08T09:06:36.585Z,17.29
2019-01-08T09:07:36.569Z,15.60
2019-01-08T09:08:36.550Z,17.20
2019-01-08T09:09:36.571Z,15.80
2019-01-08T09:10:36.539Z,19.50
2019-01-08T09:11:36.749Z,16.70
2019-01-08T09:12:36.513Z,13.69
2019-01-08T09:13:36.496Z,12.10
2019-01-08T09:14:36.498Z,17.00
2019-01-08T09:15:36.483Z,15.19
2019-01-08T09:16:36.480Z,19.00
2019-01-08T09:17:36.458Z,20.00
2019-01-08T09:18:36.504Z,16.10
2019-01-08T09:19:36.453Z,15.30
2019-01-08T09:20:36.443Z,17.79
2019-01-08T09:21:36.421Z,16.00
2019-01-08T09:22:36.399Z,13.30
2019-01-08T09:23:36.396Z,18.70
2019-01-08T09:24:36.404Z,13.80
2019-01-08T09:25:36.378Z,14.69
2019-01-08T09:26:36.356Z,14.80
2019-01-08T09:27:36.482Z,16.39
2019-01-08T09:28:36.334Z,15.89
2019-01-08T09:29:36.320Z,15.30
2019-01-08T09:30:36.326Z,12.50
2019-01-08T09:31:36.303Z,14.60
2019-01-08T09:32:36.317Z,16.29
2019-01-08T09:33:36.289Z,12.00
2019-01-08T09:34:36.280Z,16.20
2019-01-08T09:35:36.269Z,13.00
2019-01-08T09:36:36.254Z,16.29
2019-01-08T09:37:36.261Z,12.89
2019-01-08T09:38:36.333Z,12.69
2019-01-08T09:39:36.217Z,13.10
2019-01-08T09:40:36.211Z,13.80
2019-01-08T09:41:36.199Z,14.50
2019-01-08T09:42:36.228Z,11.00
2019-01-08T09:43:36.173Z,12.60
2019-01-08T09:44:36.163Z,14.60
2019-01-08T09:45:36.157Z,11.19
2019-01-08T09:46:36.141Z,15.00
2019-01-08T09:47:36.126Z,11.69
2019-01-08T09:48:36.145Z,11.69
2019-01-08T09:49:36.130Z,15.60
2019-01-08T09:50:36.128Z,16.50
2019-01-08T09:51:36.093Z,15.10
2019-01-08T09:52:36.075Z,14.00
2019-01-08T09:53:36.070Z,19.89
2019-01-08T09:54:36.048Z,14.39
2019-01-08T09:55:36.042Z,16.50
2019-01-08T09:56:36.026Z,15.60
2019-01-08T09:57:36.033Z,12.30
2019-01-08T09:58:37.487Z,11.89
2019-01-08T09:59:36.011Z,19.50
2019-01-08T10:00:36.031Z,17.00
2019-01-08T10:01:35.976Z,19.10
2019-01-08T10:03:39.436Z,16.00
2019-01-08T10:04:39.457Z,18.70
2019-01-08T10:05:39.423Z,12.89
2019-01-08T10:06:39.435Z,11.39
2019-01-08T10:07:39.402Z,11.39
2019-01-08T10:08:39.382Z,14.69
2019-01-08T10:09:39.377Z,13.30
2019-01-08T10:10:39.357Z,15.50
2019-01-08T10:11:39.360Z,15.39
2019-01-08T10:12:39.332Z,16.50
2019-01-08T10:13:39.432Z,15.50
2019-01-08T10:14:39.321Z,17.70
2019-01-08T10:15:39.419Z,14.39
2019-01-08T10:16:39.292Z,17.70
2019-01-08T10:17:55.807Z,16.10
2019-01-08T10:19:04.766Z,16.50
2019-01-08T10:20:04.752Z,16.00
2019-01-08T10:21:04.743Z,13.69
2019-01-08T10:22:04.716Z,13.19
2019-01-08T10:23:10.066Z,11.80
2019-01-08T10:24:29.848Z,11.89
2019-01-08T10:25:29.829Z,12.50
2019-01-08T10:26:29.835Z,13.19
2019-01-08T10:27:29.813Z,12.19
2019-01-08T10:28:29.804Z,11.19
2019-01-08T10:29:29.785Z,13.19
2019-01-08T10:30:30.595Z,16.00
2019-01-08T10:31:32.607Z,10.19
2019-01-08T10:32:29.795Z,16.70
2019-01-08T10:33:29.744Z,13.80
2019-01-08T10:34:29.750Z,13.00
2019-01-08T10:35:29.753Z,10.60
2019-01-08T10:36:29.702Z,11.10
2019-01-08T10:37:29.734Z,10.80
2019-01-08T10:38:29.716Z,12.39
2019-01-08T10:39:29.682Z,13.30
2019-01-08T10:40:29.663Z,14.30
2019-01-08T10:41:29.654Z,10.19
2019-01-08T10:42:29.634Z,11.60
2019-01-08T10:43:29.643Z,13.19
2019-01-08T10:44:29.621Z,11.69
2019-01-08T10:45:31.003Z,12.69
2019-01-08T10:46:37.228Z,12.39
2019-01-08T10:47:54.820Z,11.60
2019-01-08T10:48:55.888Z,17.70
2019-01-08T10:49:56.600Z,10.89
2019-01-08T10:50:54.864Z,10.80
2019-01-08T10:51:54.776Z,14.19
2019-01-08T10:52:54.777Z,12.39
2019-01-08T10:53:54.813Z,13.60
2019-01-08T10:54:54.739Z,15.60
2019-01-08T10:55:54.745Z,12.50
2019-01-08T10:56:54.719Z,12.19
2019-01-08T10:57:54.796Z,12.10
2019-01-08T10:58:54.704Z,17.29
2019-01-08T10:59:54.681Z,11.30
2019-01-08T11:00:54.661Z,15.69
2019-01-08T11:02:04.006Z,12.50
2019-01-08T11:02:55.673Z,13.00
2019-01-08T11:03:54.668Z,10.30
2019-01-08T11:04:54.619Z,15.19
2019-01-08T11:05:54.635Z,8.69
2019-01-08T11:06:54.600Z,11.80
2019-01-08T11:07:54.596Z,10.00
2019-01-08T11:08:54.579Z,10.60
2019-01-08T11:09:54.569Z,9.39
2019-01-08T11:10:54.582Z,11.60
2019-01-08T11:11:54.570Z,9.60
2019-01-08T11:12:54.549Z,10.69
2019-01-08T11:13:54.587Z,11.89
2019-01-08T11:14:54.524Z,10.89
2019-01-08T11:15:55.832Z,7.50
2019-01-08T11:16:54.492Z,11.50
2019-01-08T11:17:55.324Z,13.50
2019-01-08T11:18:54.463Z,9.19
2019-01-08T11:19:54.457Z,9.80
2019-01-08T11:20:55.032Z,10.89
2019-01-08T11:21:54.731Z,13.19
2019-01-08T11:22:54.473Z,12.39
2019-01-08T11:23:54.448Z,10.39
2019-01-08T11:24:54.401Z,15.39
2019-01-08T11:25:54.395Z,10.89
2019-01-08T11:26:54.377Z,12.30
2019-01-08T11:27:54.374Z,12.89
2019-01-08T11:28:54.395Z,13.00
2019-01-08T11:29:54.342Z,15.60
2019-01-08T11:30:59.884Z,15.39
2019-01-08T11:31:54.319Z,14.69
2019-01-08T11:32:54.883Z,15.30
2019-01-08T11:33:54.295Z,14.89
2019-01-08T11:34:54.372Z,12.39
2019-01-08T11:35:54.282Z,14.00
2019-01-08T11:36:54.297Z,14.10
2019-01-08T11:37:54.264Z,14.80
2019-01-08T11:38:54.258Z,14.80
2019-01-08T11:39:54.236Z,12.80
2019-01-08T11:40:54.222Z,14.10
2019-01-08T11:41:54.221Z,16.60
2019-01-08T11:42:54.236Z,12.89
2019-01-08T11:43:54.232Z,10.60
2019-01-08T11:44:54.185Z,13.19
2019-01-08T11:45:54.161Z,11.30
2019-01-08T11:46:54.155Z,12.69
2019-01-08T11:47:54.133Z,17.10
2019-01-08T11:48:54.132Z,15.89
2019-01-08T11:49:54.150Z,14.19
2019-01-08T11:50:54.118Z,13.80
2019-01-08T11:51:54.104Z,14.89
2019-01-08T11:52:54.092Z,14.60
2019-01-08T11:53:54.123Z,13.00
2019-01-08T11:54:54.069Z,14.39
2019-01-08T11:55:54.070Z,13.10
2019-01-08T11:56:54.117Z,11.60
2019-01-08T11:57:54.225Z,15.10
2019-01-08T11:58:54.029Z,13.69
2019-01-08T11:59:54.012Z,13.60
2019-01-08T12:00:54.000Z,11.69
2019-01-08T12:01:57.427Z,15.19
2019-01-08T12:02:54.014Z,15.60
2019-01-08T12:03:53.958Z,11.89
2019-01-08T12:04:53.954Z,15.60
2019-01-08T12:05:53.941Z,19.29
2019-01-08T12:06:53.933Z,14.69
2019-01-08T12:07:53.948Z,10.19
2019-01-08T12:08:53.938Z,14.30
2019-01-08T12:09:53.895Z,13.30
2019-01-08T12:10:54.695Z,10.60
2019-01-08T12:11:53.878Z,9.80
2019-01-08T12:12:53.867Z,12.89
2019-01-08T12:13:53.866Z,13.19
2019-01-08T12:14:53.974Z,14.00
2019-01-08T12:15:53.830Z,10.50
2019-01-08T12:16:53.871Z,12.50
2019-01-08T12:17:53.808Z,15.60
2019-01-08T12:18:53.811Z,14.00
2019-01-08T12:19:53.785Z,13.89
2019-01-08T12:20:53.780Z,15.19
2019-01-08T12:21:53.767Z,12.10
2019-01-08T12:22:53.763Z,14.39
2019-01-08T12:23:53.737Z,13.19
2019-01-08T12:24:53.775Z,10.10
2019-01-08T12:25:53.728Z,12.19
2019-01-08T12:26:53.740Z,11.50
2019-01-08T12:27:53.703Z,10.69
2019-01-08T12:28:53.758Z,9.39
2019-01-08T12:29:53.673Z,17.29
2019-01-08T12:30:53.672Z,15.89
2019-01-08T12:31:55.731Z,11.39
2019-01-08T12:32:53.645Z,10.39
2019-01-08T12:33:53.634Z,9.89
2019-01-08T12:34:53.639Z,12.60
2019-01-08T12:35:54.497Z,9.19
2019-01-08T12:36:53.680Z,12.00
2019-01-08T12:37:53.596Z,10.19
2019-01-08T12:38:53.564Z,9.50
2019-01-08T12:39:53.573Z,8.69
2019-01-08T12:40:53.545Z,12.19
2019-01-08T12:41:53.538Z,9.19
2019-01-08T12:42:53.547Z,12.00
2019-01-08T12:43:55.609Z,11.89
2019-01-08T12:44:53.520Z,10.10
2019-01-08T12:45:53.491Z,7.00
2019-01-08T12:46:53.486Z,8.80
2019-01-08T12:47:53.486Z,5.19
2019-01-08T12:48:53.474Z,5.50
2019-01-08T12:49:54.492Z,5.80
2019-01-08T12:50:53.449Z,5.50
2019-01-08T12:51:53.961Z,5.09
2019-01-08T12:52:53.449Z,3.70
2019-01-08T12:53:53.462Z,5.90
2019-01-08T12:55:08.440Z,8.00
2019-01-08T12:55:54.396Z,4.59
2019-01-08T12:56:53.377Z,6.19
2019-01-08T12:57:53.376Z,4.50
2019-01-08T12:58:53.519Z,6.69
2019-01-08T13:00:08.411Z,3.90
2019-01-08T13:00:54.348Z,4.59
2019-01-08T13:01:53.522Z,10.60
2019-01-08T13:02:53.828Z,8.89
2019-01-08T13:03:53.317Z,7.09
2019-01-08T13:04:53.285Z,5.09
2019-01-08T13:05:53.274Z,7.19
2019-01-08T13:06:53.395Z,8.10
2019-01-08T13:07:56.261Z,8.00
2019-01-08T13:08:53.260Z,10.89
2019-01-08T13:09:53.227Z,10.80
2019-01-08T13:10:53.237Z,10.39
2019-01-08T13:11:53.210Z,9.39
2019-01-08T13:12:53.202Z,11.39
2019-01-08T13:13:53.220Z,11.19
2019-01-08T13:14:53.172Z,14.30
2019-01-08T13:15:53.163Z,15.50
2019-01-08T13:16:53.167Z,14.00
2019-01-08T13:17:53.159Z,13.00
2019-01-08T13:18:53.333Z,16.60
2019-01-08T13:19:53.123Z,16.79
2019-01-08T13:20:53.112Z,15.80
